createdAt,value
2022-09-22T00:01:28.916Z,3.50
2022-09-22T00:04:00.309Z,3.35
2022-09-22T00:06:33.103Z,2.00
2022-09-22T00:09:02.049Z,2.55
2022-09-22T00:11:36.344Z,3.28
2022-09-22T00:14:13.186Z,3.25
2022-09-22T00:16:45.304Z,2.33
2022-09-22T00:19:21.797Z,4.85
2022-09-22T00:21:49.328Z,1.58
2022-09-22T00:24:18.222Z,2.20
2022-09-22T00:26:45.848Z,1.90
2022-09-22T00:29:13.467Z,3.33
2022-09-22T00:31:42.134Z,1.40
2022-09-22T00:34:14.539Z,2.72
2022-09-22T00:36:42.583Z,1.02
2022-09-22T00:39:09.998Z,3.90
2022-09-22T00:41:41.984Z,1.65
2022-09-22T00:44:21.242Z,2.85
2022-09-22T00:47:06.585Z,2.22
2022-09-22T00:49:49.746Z,1.38
2022-09-22T00:52:25.330Z,3.20
2022-09-22T00:54:57.199Z,1.35
2022-09-22T00:57:29.295Z,1.83
2022-09-22T00:59:57.583Z,1.13
2022-09-22T01:02:24.860Z,1.00
2022-09-22T01:04:52.916Z,1.63
2022-09-22T01:07:22.838Z,1.65
2022-09-22T01:09:50.213Z,1.42
2022-09-22T01:12:17.406Z,3.65
2022-09-22T01:15:15.652Z,1.65
2022-09-22T01:17:58.612Z,1.25
2022-09-22T01:20:44.402Z,2.28
2022-09-22T01:23:42.452Z,0.93
2022-09-22T01:26:33.877Z,1.50
2022-09-22T01:29:13.228Z,0.90
2022-09-22T01:31:57.172Z,1.83
2022-09-22T01:34:34.808Z,1.23
2022-09-22T01:37:34.436Z,2.38
2022-09-22T01:40:09.394Z,2.13
2022-09-22T01:42:44.362Z,2.78
2022-09-22T01:45:18.043Z,1.10
2022-09-22T01:47:50.631Z,0.77
2022-09-22T01:50:41.612Z,3.40
2022-09-22T01:53:14.415Z,1.15
2022-09-22T01:55:47.524Z,1.88
2022-09-22T01:58:34.533Z,1.02
2022-09-22T02:01:25.885Z,3.28
2022-09-22T02:04:05.276Z,0.70
2022-09-22T02:06:38.180Z,1.45
2022-09-22T02:09:15.988Z,0.75
2022-09-22T02:11:43.383Z,0.80
2022-09-22T02:14:12.111Z,1.67
2022-09-22T02:16:39.469Z,0.80
2022-09-22T02:19:20.417Z,2.22
2022-09-22T02:21:49.137Z,0.90
2022-09-22T02:24:34.957Z,1.73
2022-09-22T02:27:06.249Z,1.88
2022-09-22T02:29:39.830Z,1.77
2022-09-22T02:32:12.027Z,2.38
2022-09-22T02:34:39.639Z,1.40
2022-09-22T02:37:42.307Z,2.15
2022-09-22T02:40:24.900Z,1.30
2022-09-22T02:43:08.013Z,0.80
2022-09-22T02:45:35.319Z,3.78
2022-09-22T02:48:37.407Z,3.00
2022-09-22T02:53:34.837Z,1.15
2022-09-22T02:56:03.619Z,1.70
2022-09-22T02:58:31.234Z,1.35
2022-09-22T03:00:58.384Z,2.78
2022-09-22T03:03:25.590Z,1.67
2022-09-22T03:05:53.081Z,2.90
2022-09-22T03:08:20.246Z,1.08
2022-09-22T03:10:47.482Z,2.47
2022-09-22T03:13:16.918Z,0.90
2022-09-22T03:15:46.959Z,1.55
2022-09-22T03:18:14.614Z,1.30
2022-09-22T03:20:42.956Z,4.85
2022-09-22T03:23:10.416Z,1.40
2022-09-22T03:25:37.618Z,1.33
2022-09-22T03:28:05.095Z,2.13
2022-09-22T03:30:32.486Z,1.95
2022-09-22T03:32:59.725Z,2.72
2022-09-22T03:35:27.185Z,1.00
2022-09-22T03:37:54.388Z,0.70
2022-09-22T03:40:22.781Z,1.55
2022-09-22T03:42:50.326Z,1.85
2022-09-22T03:45:17.667Z,2.28
2022-09-22T03:47:44.879Z,1.23
2022-09-22T03:50:12.242Z,1.95
2022-09-22T03:52:41.736Z,1.10
2022-09-22T03:55:09.667Z,1.60
2022-09-22T03:57:37.094Z,4.43
2022-09-22T04:00:05.651Z,1.55
2022-09-22T04:02:39.521Z,0.50
2022-09-22T04:05:07.294Z,0.60
2022-09-22T04:07:34.544Z,1.35
2022-09-22T04:10:02.780Z,2.35
2022-09-22T04:12:30.196Z,2.80
2022-09-22T04:14:57.448Z,2.03
2022-09-22T04:17:24.951Z,1.55
2022-09-22T04:19:52.174Z,1.70
2022-09-22T04:22:19.344Z,2.53
2022-09-22T04:24:46.691Z,1.92
2022-09-22T04:27:21.421Z,1.25
2022-09-22T04:29:49.681Z,1.50
2022-09-22T04:32:18.032Z,2.88
2022-09-22T04:34:45.373Z,2.10
2022-09-22T04:37:13.655Z,1.05
2022-09-22T04:39:41.560Z,1.92
2022-09-22T04:42:09.218Z,2.05
2022-09-22T04:44:36.756Z,2.05
2022-09-22T04:47:04.933Z,1.55
2022-09-22T04:49:32.174Z,2.00
2022-09-22T04:51:59.721Z,1.48
2022-09-22T04:54:26.992Z,1.42
2022-09-22T04:56:54.154Z,1.48
2022-09-22T04:59:21.573Z,1.15
2022-09-22T05:01:48.946Z,2.90
2022-09-22T05:04:16.140Z,2.45
2022-09-22T05:06:43.848Z,1.27
2022-09-22T05:09:11.012Z,2.22
2022-09-22T05:11:38.233Z,1.38
2022-09-22T05:14:05.648Z,1.55
2022-09-22T05:16:34.098Z,3.03
2022-09-22T05:19:01.370Z,2.08
2022-09-22T05:21:28.965Z,2.17
2022-09-22T05:23:56.224Z,3.40
2022-09-22T05:26:23.359Z,2.35
2022-09-22T05:28:51.690Z,1.70
2022-09-22T05:31:19.384Z,1.85
2022-09-22T05:33:46.588Z,1.23
2022-09-22T05:36:14.009Z,2.67
2022-09-22T05:38:41.222Z,2.35
2022-09-22T05:41:08.635Z,2.83
2022-09-22T05:43:36.013Z,3.53
2022-09-22T05:46:03.428Z,2.75
2022-09-22T05:48:31.566Z,1.65
2022-09-22T05:50:59.246Z,1.52
2022-09-22T05:53:27.304Z,2.80
2022-09-22T05:55:56.966Z,2.13
2022-09-22T05:58:24.901Z,1.30
2022-09-22T06:00:52.126Z,1.08
2022-09-22T06:03:19.545Z,1.98
2022-09-22T06:05:46.994Z,1.58
2022-09-22T06:08:14.536Z,0.82
2022-09-22T06:10:41.779Z,2.17
2022-09-22T06:13:10.704Z,2.80
2022-09-22T06:15:38.813Z,4.55
2022-09-22T06:18:11.845Z,1.77
2022-09-22T06:20:42.845Z,1.08
2022-09-22T06:23:12.732Z,2.83
2022-09-22T06:25:39.985Z,1.30
2022-09-22T06:28:09.797Z,1.27
2022-09-22T06:30:40.988Z,2.20
2022-09-22T06:33:10.096Z,1.27
2022-09-22T06:35:38.040Z,3.17
2022-09-22T06:38:07.158Z,0.75
2022-09-22T06:40:38.350Z,2.17
2022-09-22T06:43:12.137Z,2.05
2022-09-22T06:45:40.383Z,0.73
2022-09-22T06:48:10.354Z,1.30
2022-09-22T06:50:38.868Z,0.93
2022-09-22T06:53:07.574Z,1.58
2022-09-22T06:55:35.974Z,0.70
2022-09-22T06:58:03.610Z,0.43
2022-09-22T07:00:33.297Z,1.05
2022-09-22T07:03:09.202Z,0.52
2022-09-22T07:05:37.331Z,1.55
2022-09-22T07:08:09.099Z,1.80
2022-09-22T07:13:06.715Z,0.88
2022-09-22T07:15:34.969Z,1.85
2022-09-22T07:18:02.959Z,0.93
2022-09-22T07:20:30.543Z,0.50
2022-09-22T07:23:00.629Z,0.20
2022-09-22T07:25:28.934Z,0.65
2022-09-22T07:28:05.093Z,0.77
2022-09-22T07:30:34.247Z,2.00
2022-09-22T07:33:01.866Z,1.70
2022-09-22T07:35:29.065Z,0.75
2022-09-22T07:37:57.112Z,0.70
2022-09-22T07:40:25.099Z,1.75
2022-09-22T07:42:52.444Z,1.02
2022-09-22T07:45:19.692Z,1.05
2022-09-22T07:48:05.637Z,0.98
2022-09-22T07:50:33.022Z,1.23
2022-09-22T07:53:00.902Z,1.02
2022-09-22T07:55:28.129Z,1.35
2022-09-22T07:57:59.946Z,1.73
2022-09-22T08:00:33.033Z,0.45
2022-09-22T08:03:01.385Z,1.48
2022-09-22T08:05:29.485Z,1.27
2022-09-22T08:07:58.332Z,0.60
2022-09-22T08:10:26.450Z,0.40
2022-09-22T08:12:55.399Z,1.27
2022-09-22T08:15:27.066Z,0.82
2022-09-22T08:17:58.391Z,1.60
2022-09-22T08:20:29.299Z,1.15
2022-09-22T08:23:03.328Z,1.20
2022-09-22T08:25:31.277Z,0.50
2022-09-22T08:28:01.259Z,0.88
2022-09-22T08:30:28.574Z,1.00
2022-09-22T08:32:55.794Z,2.45
2022-09-22T08:35:23.241Z,0.88
2022-09-22T08:37:50.822Z,0.68
2022-09-22T08:40:23.786Z,1.17
2022-09-22T08:42:54.525Z,2.30
2022-09-22T08:45:33.490Z,0.73
2022-09-22T08:48:34.676Z,2.47
2022-09-22T08:51:26.879Z,1.67
2022-09-22T08:53:59.658Z,3.70
2022-09-22T08:56:32.736Z,1.05
2022-09-22T08:59:12.270Z,1.20
2022-09-22T09:02:04.919Z,1.63
2022-09-22T09:04:51.303Z,0.80
2022-09-22T09:07:30.735Z,1.90
2022-09-22T09:10:26.749Z,1.52
2022-09-22T09:13:12.465Z,1.70
2022-09-22T09:15:55.768Z,0.73
2022-09-22T09:18:39.486Z,1.77
2022-09-22T09:21:10.663Z,0.77
2022-09-22T09:26:40.320Z,1.42
2022-09-22T09:29:17.013Z,2.95
2022-09-22T09:31:52.582Z,2.70
2022-09-22T09:34:29.038Z,3.38
2022-09-22T09:37:07.915Z,0.95
2022-09-22T09:39:40.409Z,3.50
2022-09-22T09:42:25.721Z,1.65
2022-09-22T09:44:54.859Z,1.70
2022-09-22T09:47:26.176Z,1.58
2022-09-22T09:49:54.825Z,1.50
2022-09-22T09:52:26.259Z,3.50
2022-09-22T09:57:27.692Z,3.50
2022-09-22T10:00:32.925Z,4.00
2022-09-22T10:03:04.016Z,3.67
2022-09-22T10:05:35.501Z,7.28
2022-09-22T10:08:15.335Z,1.70
2022-09-22T10:10:43.254Z,2.22
2022-09-22T10:13:11.091Z,3.72
2022-09-22T10:15:41.694Z,1.23
2022-09-22T10:18:24.506Z,16.98
2022-09-22T10:21:20.981Z,0.73
2022-09-22T10:23:50.323Z,1.23
2022-09-22T10:26:23.440Z,1.25
2022-09-22T10:29:12.764Z,0.52
2022-09-22T10:31:41.809Z,0.35
2022-09-22T10:34:36.502Z,0.85
2022-09-22T10:37:10.695Z,0.50
2022-09-22T10:39:44.532Z,1.17
2022-09-22T10:42:28.728Z,0.77
2022-09-22T10:45:02.649Z,0.75
2022-09-22T10:47:43.854Z,1.63
2022-09-22T10:50:31.429Z,1.25
2022-09-22T10:53:27.678Z,0.40
2022-09-22T10:56:26.594Z,0.63
2022-09-22T10:59:20.135Z,1.30
2022-09-22T11:02:06.154Z,0.80
2022-09-22T11:04:40.933Z,2.60
2022-09-22T11:07:51.377Z,0.90
2022-09-22T11:10:52.637Z,0.88
2022-09-22T11:13:26.276Z,2.65
2022-09-22T11:16:27.953Z,0.55
2022-09-22T11:21:51.085Z,6.38
2022-09-22T11:24:37.781Z,0.30
2022-09-22T11:27:15.761Z,2.65
2022-09-22T11:30:10.678Z,0.77
2022-09-22T11:32:42.018Z,1.85
2022-09-22T11:35:28.078Z,25.67
2022-09-22T11:38:13.374Z,6.40
2022-09-22T11:40:50.863Z,1.92
2022-09-22T11:43:48.532Z,1.88
2022-09-22T11:46:34.426Z,1.95
2022-09-22T11:49:23.297Z,0.30
2022-09-22T11:52:20.774Z,0.68
2022-09-22T11:55:09.065Z,0.68
2022-09-22T11:57:41.420Z,1.30
2022-09-22T12:00:17.487Z,0.50
2022-09-22T12:02:55.073Z,0.50
2022-09-22T12:05:29.148Z,0.70
2022-09-22T12:08:02.848Z,1.63
2022-09-22T12:10:39.992Z,1.38
2022-09-22T12:13:15.406Z,2.40
2022-09-22T12:15:46.756Z,0.60
2022-09-22T12:21:10.129Z,0.50
2022-09-22T12:23:39.669Z,7.50
2022-09-22T12:26:10.421Z,1.83
2022-09-22T12:28:43.281Z,0.40
2022-09-22T12:31:16.197Z,0.52
2022-09-22T12:33:49.949Z,5.47
2022-09-22T12:36:39.187Z,3.90
2022-09-22T12:39:36.943Z,0.70
2022-09-22T12:42:07.199Z,1.02
2022-09-22T12:44:48.615Z,0.52
2022-09-22T12:47:20.894Z,0.85
2022-09-22T12:49:56.001Z,2.10
2022-09-22T12:52:41.733Z,0.82
2022-09-22T12:55:18.569Z,2.22
2022-09-22T12:57:51.200Z,3.60
2022-09-22T13:00:25.029Z,9.45
2022-09-22T13:02:56.703Z,1.25
2022-09-22T13:05:26.833Z,3.53
2022-09-22T13:07:58.420Z,4.50
2022-09-22T13:13:02.860Z,4.97
2022-09-22T13:16:02.984Z,5.50
2022-09-22T13:18:34.838Z,2.03
2022-09-22T13:21:21.169Z,4.97
2022-09-22T13:23:51.678Z,0.30
2022-09-22T13:26:24.964Z,2.25
2022-09-22T13:29:13.388Z,1.13
2022-09-22T13:32:08.340Z,0.50
2022-09-22T13:34:37.297Z,0.50
2022-09-22T13:37:11.408Z,0.50
2022-09-22T13:39:46.873Z,2.75
2022-09-22T13:42:22.438Z,0.93
2022-09-22T13:45:17.191Z,0.70
2022-09-22T13:47:46.993Z,1.42
2022-09-22T13:50:22.508Z,0.60
2022-09-22T13:52:51.743Z,0.60
2022-09-22T13:55:30.447Z,0.57
2022-09-22T13:58:01.342Z,1.23
2022-09-22T14:01:08.771Z,0.80
2022-09-22T14:06:05.815Z,0.75
2022-09-22T14:08:33.511Z,3.13
2022-09-22T14:11:02.243Z,40.13
2022-09-22T14:13:55.974Z,3.20
2022-09-22T14:16:44.946Z,1.40
2022-09-22T14:19:21.185Z,2.80
2022-09-22T14:21:57.068Z,0.65
2022-09-22T14:24:25.756Z,0.47
2022-09-22T14:27:03.700Z,1.63
2022-09-22T14:29:32.302Z,0.52
2022-09-22T14:32:25.567Z,0.57
2022-09-22T14:35:00.271Z,0.82
2022-09-22T14:37:35.744Z,0.82
2022-09-22T14:40:13.666Z,0.45
2022-09-22T14:42:41.369Z,1.48
2022-09-22T14:45:11.572Z,0.70
2022-09-22T14:47:42.447Z,1.95
2022-09-22T14:50:27.128Z,2.63
2022-09-22T14:53:01.163Z,1.05
2022-09-22T14:55:31.574Z,1.95
2022-09-22T14:58:04.575Z,0.40
2022-09-22T15:00:50.584Z,2.17
2022-09-22T15:03:28.213Z,0.98
2022-09-22T15:06:06.290Z,2.47
2022-09-22T15:08:33.879Z,0.93
2022-09-22T15:11:01.710Z,3.28
2022-09-22T15:13:30.791Z,1.13
2022-09-22T15:15:58.066Z,0.68
2022-09-22T15:18:30.339Z,0.98
2022-09-22T15:21:12.100Z,0.80
2022-09-22T15:23:47.069Z,0.65
2022-09-22T15:26:24.167Z,1.38
2022-09-22T15:28:54.723Z,3.67
2022-09-22T15:31:26.626Z,1.17
2022-09-22T15:33:59.363Z,1.20
2022-09-22T15:36:28.146Z,0.70
2022-09-22T15:39:07.278Z,0.80
2022-09-22T15:41:35.006Z,0.75
2022-09-22T15:44:03.267Z,1.30
2022-09-22T15:46:34.115Z,1.48
2022-09-22T15:49:06.385Z,2.38
2022-09-22T15:51:34.643Z,1.77
2022-09-22T15:54:02.847Z,2.40
2022-09-22T15:56:30.596Z,2.17
2022-09-22T15:59:01.579Z,3.83
2022-09-22T16:01:29.745Z,2.50
2022-09-22T16:04:01.030Z,1.67
2022-09-22T16:06:28.813Z,1.55
2022-09-22T16:08:56.473Z,1.67
2022-09-22T16:11:32.251Z,3.22
2022-09-22T16:14:03.702Z,1.75
2022-09-22T16:16:32.417Z,4.80
2022-09-22T16:19:00.573Z,1.73
2022-09-22T16:21:30.500Z,3.55
2022-09-22T16:24:03.418Z,2.17
2022-09-22T16:26:31.910Z,1.77
2022-09-22T16:28:59.561Z,2.22
2022-09-22T16:31:27.903Z,3.08
2022-09-22T16:33:58.280Z,2.60
2022-09-22T16:36:28.626Z,2.63
2022-09-22T16:38:56.567Z,2.25
2022-09-22T16:41:24.722Z,2.88
2022-09-22T16:43:53.291Z,2.45
2022-09-22T16:46:28.218Z,2.97
2022-09-22T16:49:07.594Z,3.90
2022-09-22T16:51:38.266Z,2.97
2022-09-22T16:54:07.568Z,3.13
2022-09-22T16:56:37.946Z,4.60
2022-09-22T16:59:05.759Z,3.80
2022-09-22T17:01:38.171Z,3.90
2022-09-22T17:04:07.410Z,3.15
2022-09-22T17:06:36.149Z,2.72
2022-09-22T17:09:05.822Z,3.50
2022-09-22T17:11:36.442Z,2.53
2022-09-22T17:14:12.213Z,2.40
2022-09-22T17:16:43.938Z,2.88
2022-09-22T17:21:57.314Z,1.85
2022-09-22T17:24:26.447Z,4.07
2022-09-22T17:26:56.244Z,1.95
2022-09-22T17:29:25.294Z,2.00
2022-09-22T17:31:57.905Z,4.47
2022-09-22T17:34:30.322Z,4.18
2022-09-22T17:36:58.517Z,4.30
2022-09-22T17:39:27.269Z,4.72
2022-09-22T17:41:55.168Z,3.58
2022-09-22T17:44:23.850Z,4.95
2022-09-22T17:47:11.656Z,5.20
2022-09-22T17:49:58.335Z,4.45
2022-09-22T17:52:31.907Z,6.18
2022-09-22T17:55:09.708Z,6.25
2022-09-22T17:57:42.551Z,5.88
2022-09-22T18:00:16.243Z,6.97
2022-09-22T18:02:44.078Z,7.82
2022-09-22T18:05:14.066Z,8.90
2022-09-22T18:07:41.738Z,6.70
2022-09-22T18:10:15.994Z,7.97
2022-09-22T18:12:44.327Z,4.63
2022-09-22T18:15:13.555Z,6.30
2022-09-22T18:17:42.942Z,5.63
2022-09-22T18:20:13.328Z,5.28
2022-09-22T18:22:41.987Z,4.43
2022-09-22T18:25:10.509Z,6.15
2022-09-22T18:27:38.327Z,5.30
2022-09-22T18:30:07.031Z,5.30
2022-09-22T18:32:35.370Z,7.95
2022-09-22T18:35:02.738Z,7.85
2022-09-22T18:37:31.054Z,7.28
2022-09-22T18:39:58.341Z,9.85
2022-09-22T18:42:27.772Z,7.47
2022-09-22T18:44:55.085Z,8.65
2022-09-22T18:47:23.287Z,9.00
2022-09-22T18:49:51.870Z,7.90
2022-09-22T18:52:23.984Z,8.07
2022-09-22T18:54:56.166Z,9.48
2022-09-22T18:57:25.683Z,8.77
2022-09-22T18:59:54.126Z,12.18
2022-09-22T19:02:22.855Z,8.27
2022-09-22T19:04:54.155Z,10.20
2022-09-22T19:07:44.345Z,8.88
2022-09-22T19:10:14.188Z,10.10
2022-09-22T19:12:42.808Z,8.07
2022-09-22T19:15:13.693Z,10.50
2022-09-22T19:17:44.241Z,9.88
2022-09-22T19:20:17.491Z,9.07
2022-09-22T19:22:45.909Z,11.02
2022-09-22T19:25:13.381Z,11.07
2022-09-22T19:27:40.810Z,12.43
2022-09-22T19:30:09.835Z,11.77
2022-09-22T19:32:37.953Z,12.85
2022-09-22T19:35:07.259Z,13.20
2022-09-22T19:37:34.444Z,12.05
2022-09-22T19:40:02.177Z,10.13
2022-09-22T19:42:29.737Z,12.48
2022-09-22T19:44:56.904Z,11.55
2022-09-22T19:47:24.351Z,11.95
2022-09-22T19:49:51.785Z,12.85
2022-09-22T19:52:19.003Z,12.93
2022-09-22T19:54:47.279Z,11.13
2022-09-22T19:57:14.675Z,10.00
2022-09-22T19:59:42.066Z,11.20
2022-09-22T20:02:13.848Z,9.77
2022-09-22T20:04:41.158Z,9.85
2022-09-22T20:07:08.597Z,8.15
2022-09-22T20:09:36.583Z,8.50
2022-09-22T20:12:03.983Z,10.52
2022-09-22T20:14:32.047Z,7.88
2022-09-22T20:17:05.572Z,11.10
2022-09-22T20:19:38.457Z,9.23
2022-09-22T20:22:27.969Z,9.65
2022-09-22T20:24:58.035Z,8.07
2022-09-22T20:27:31.640Z,8.55
2022-09-22T20:30:00.251Z,8.75
2022-09-22T20:32:31.708Z,8.43
2022-09-22T20:34:59.135Z,8.68
2022-09-22T20:37:26.320Z,9.65
2022-09-22T20:39:53.810Z,8.63
2022-09-22T20:42:20.973Z,8.95
2022-09-22T20:44:49.248Z,9.68
2022-09-22T20:47:19.063Z,8.23
2022-09-22T20:49:51.296Z,8.93
2022-09-22T20:52:20.501Z,7.32
2022-09-22T20:54:48.313Z,10.18
2022-09-22T20:57:15.644Z,9.70
2022-09-22T20:59:45.904Z,10.55
2022-09-22T21:02:15.193Z,8.55
2022-09-22T21:04:42.449Z,9.93
2022-09-22T21:07:11.577Z,13.48
2022-09-22T21:09:57.374Z,9.55
2022-09-22T21:12:30.253Z,7.53
2022-09-22T21:14:59.095Z,10.68
2022-09-22T21:17:27.944Z,7.05
2022-09-22T21:19:59.305Z,8.38
2022-09-22T21:22:31.049Z,9.90
2022-09-22T21:27:25.598Z,8.30
2022-09-22T21:29:53.549Z,7.50
2022-09-22T21:32:21.038Z,7.55
2022-09-22T21:34:48.343Z,10.38
2022-09-22T21:37:15.703Z,9.27
2022-09-22T21:39:43.090Z,9.88
2022-09-22T21:42:10.227Z,11.48
2022-09-22T21:44:37.555Z,10.23
2022-09-22T21:47:05.063Z,8.43
2022-09-22T21:49:33.027Z,9.90
2022-09-22T21:52:01.261Z,11.40
2022-09-22T21:54:28.644Z,11.68
2022-09-22T21:56:56.732Z,10.93
2022-09-22T21:59:23.903Z,9.48
2022-09-22T22:01:51.420Z,9.68
2022-09-22T22:04:18.887Z,9.60
2022-09-22T22:06:46.650Z,12.90
2022-09-22T22:09:17.171Z,9.43
2022-09-22T22:11:49.987Z,10.70
2022-09-22T22:14:19.899Z,11.05
2022-09-22T22:16:50.884Z,10.10
2022-09-22T22:19:21.109Z,10.35
2022-09-22T22:21:50.833Z,10.68
2022-09-22T22:24:44.223Z,10.48
2022-09-22T22:27:11.638Z,9.55
2022-09-22T22:29:39.963Z,9.52
2022-09-22T22:32:09.425Z,9.88
2022-09-22T22:34:37.562Z,11.50
2022-09-22T22:37:07.196Z,9.15
2022-09-22T22:39:34.454Z,8.25
2022-09-22T22:42:01.883Z,9.90
2022-09-22T22:44:29.102Z,8.98
2022-09-22T22:46:56.343Z,8.85
2022-09-22T22:49:23.776Z,8.82
2022-09-22T22:51:52.438Z,9.35
2022-09-22T22:54:19.650Z,7.72
2022-09-22T22:56:51.045Z,8.48
2022-09-22T22:59:18.811Z,8.00
2022-09-22T23:01:46.041Z,8.65
2022-09-22T23:04:13.922Z,7.68
2022-09-22T23:06:45.404Z,6.72
2022-09-22T23:09:15.875Z,6.72
2022-09-22T23:11:44.353Z,7.20
2022-09-22T23:14:13.107Z,10.35
2022-09-22T23:16:45.522Z,7.90
2022-09-22T23:19:15.847Z,8.68
2022-09-22T23:21:45.043Z,5.57
2022-09-22T23:24:17.188Z,6.38
2022-09-22T23:26:45.606Z,8.00
2022-09-22T23:29:13.359Z,6.97
2022-09-22T23:31:40.827Z,6.00
2022-09-22T23:34:08.390Z,8.00
2022-09-22T23:36:35.816Z,7.57
2022-09-22T23:39:04.540Z,7.05
2022-09-22T23:41:36.836Z,9.88
2022-09-22T23:44:06.938Z,8.23
2022-09-22T23:46:35.053Z,7.97
2022-09-22T23:49:02.508Z,6.70
2022-09-22T23:51:30.229Z,8.25
2022-09-22T23:53:58.139Z,8.70
2022-09-22T23:56:25.432Z,8.65
2022-09-22T23:58:52.653Z,13.38
